KOSH/OSH METAR and TAF weather

Enter ICAO airport designator
Station Type Date Time Source
KOSH METAR 2019/08/25 19:53 UTC NOAA

KOSH 251953Z 12012KT 10SM FEW041 23/13 A3008 RMK AO2 SLP178 T02330128


Station Type Date Time Source
KOSH Decoded METAR 2019/08/25 19:53 UTC NOAA

Station name not available
Aug 25, 2019 - 03:53 PM EDT / 2019.08.25 1953 UTC
Wind: from the ESE (120 degrees) at 14 MPH (12 KT):0
Visibility: 10 mile(s):0
Sky conditions: mostly clear
Temperature: 73.9 F (23.3 C)
Dew Point: 55.0 F (12.8 C)
Relative Humidity: 51%
Pressure (altimeter): 30.08 in. Hg (1018 hPa)
ob: KOSH 251953Z 12012KT 10SM FEW041 23/13 A3008 RMK AO2 SLP178 T02330128
cycle: 20

Station Type Date Time Source
KOSH TAF 2019/07/30 12:39 UTC NOAA

TAF KOSH 301136Z 3012/3112 36006KT P6SM BKN050
TEMPO 3015/3017 BKN025
FM301700 01006KT P6SM BKN035
FM302200 04005KT P6SM SCT045
FM310200 11003KT P6SM SKC
FM310900 VRB03KT 6SM BR SKC

Example: see airport list